createdAt,value
2023-03-05T00:00:23.781Z,3.98
2023-03-05T00:02:27.689Z,3.99
2023-03-05T00:04:33.062Z,4.00
2023-03-05T00:06:36.911Z,4.02
2023-03-05T00:08:41.211Z,4.02
2023-03-05T00:10:44.846Z,4.05
2023-03-05T00:12:48.679Z,4.06
2023-03-05T00:14:53.271Z,4.05
2023-03-05T00:16:56.845Z,4.06
2023-03-05T00:19:02.359Z,4.04
2023-03-05T00:21:18.713Z,4.03
2023-03-05T00:23:22.390Z,4.03
2023-03-05T00:25:26.063Z,4.02
2023-03-05T00:27:29.818Z,4.03
2023-03-05T00:29:34.927Z,4.03
2023-03-05T00:31:39.402Z,4.06
2023-03-05T00:33:43.982Z,4.05
2023-03-05T00:35:48.529Z,4.06
2023-03-05T00:37:54.095Z,4.09
2023-03-05T00:39:57.548Z,4.07
2023-03-05T00:42:01.183Z,4.07
2023-03-05T00:44:05.222Z,4.06
2023-03-05T00:46:08.797Z,4.04
2023-03-05T00:48:12.357Z,4.05
2023-03-05T00:50:15.628Z,4.07
2023-03-05T00:52:19.063Z,4.06
2023-03-05T00:54:23.713Z,4.06
2023-03-05T00:56:28.113Z,4.07
2023-03-05T00:58:31.448Z,4.04
2023-03-05T01:00:34.823Z,4.01
2023-03-05T01:02:38.332Z,4.02
2023-03-05T01:04:41.724Z,4.01
2023-03-05T01:06:46.380Z,3.99
2023-03-05T01:08:50.535Z,3.98
2023-03-05T01:10:55.482Z,3.96
2023-03-05T01:12:58.913Z,3.97
2023-03-05T01:15:02.208Z,3.97
2023-03-05T01:17:05.845Z,3.98
2023-03-05T01:19:09.585Z,3.98
2023-03-05T01:21:12.903Z,3.98
2023-03-05T01:23:16.958Z,3.97
2023-03-05T01:25:21.346Z,3.96
2023-03-05T01:27:25.990Z,3.95
2023-03-05T01:29:29.415Z,3.93
2023-03-05T01:31:32.896Z,3.92
2023-03-05T01:33:36.565Z,3.90
2023-03-05T01:35:40.060Z,3.88
2023-03-05T01:37:43.685Z,3.89
2023-03-05T01:39:47.052Z,3.87
2023-03-05T01:41:50.381Z,3.87
2023-03-05T01:43:55.175Z,3.88
2023-03-05T01:46:24.044Z,3.87
2023-03-05T01:48:27.724Z,3.88
2023-03-05T01:50:31.145Z,3.87
2023-03-05T01:52:37.905Z,3.87
2023-03-05T01:54:46.110Z,3.87
2023-03-05T01:56:51.593Z,3.86
2023-03-05T01:59:03.648Z,3.87
2023-03-05T02:01:07.428Z,3.86
2023-03-05T02:03:13.798Z,3.87
2023-03-05T02:05:20.752Z,3.87
2023-03-05T02:07:24.840Z,3.85
2023-03-05T02:09:29.655Z,3.85
2023-03-05T02:11:34.098Z,3.85
2023-03-05T02:13:40.915Z,3.85
2023-03-05T02:15:47.414Z,3.85
2023-03-05T02:17:51.101Z,3.86
2023-03-05T02:19:55.865Z,3.86
2023-03-05T02:22:00.747Z,3.86
2023-03-05T02:24:04.021Z,3.87
2023-03-05T02:26:10.306Z,3.85
2023-03-05T02:28:17.702Z,3.82
2023-03-05T02:30:21.646Z,3.80
2023-03-05T02:32:25.252Z,3.78
2023-03-05T02:34:28.758Z,3.78
2023-03-05T02:36:32.369Z,3.77
2023-03-05T02:38:37.369Z,3.76
2023-03-05T02:40:41.020Z,3.72
2023-03-05T02:42:45.106Z,3.72
2023-03-05T02:44:49.710Z,3.72
2023-03-05T02:46:53.145Z,3.70
2023-03-05T02:48:56.530Z,3.67
2023-03-05T02:51:01.174Z,3.67
2023-03-05T02:53:04.672Z,3.66
2023-03-05T02:55:10.401Z,3.67
2023-03-05T02:57:15.015Z,3.69
2023-03-05T02:59:18.265Z,3.72
2023-03-05T03:01:21.598Z,3.73
2023-03-05T03:03:25.252Z,3.73
2023-03-05T03:05:28.587Z,3.71
2023-03-05T03:07:31.982Z,3.69
2023-03-05T03:09:35.673Z,3.70
2023-03-05T03:11:40.349Z,3.69
2023-03-05T03:13:43.612Z,3.70
2023-03-05T03:15:47.339Z,3.70
2023-03-05T03:17:50.754Z,3.69
2023-03-05T03:19:54.067Z,3.68
2023-03-05T03:21:57.406Z,3.66
2023-03-05T03:24:00.669Z,3.63
2023-03-05T03:26:03.978Z,3.62
2023-03-05T03:28:08.864Z,3.61
2023-03-05T03:30:13.423Z,3.61
2023-03-05T03:32:16.811Z,3.59
2023-03-05T03:34:20.741Z,3.55
2023-03-05T03:36:24.048Z,3.54
2023-03-05T03:38:27.468Z,3.54
2023-03-05T03:40:31.375Z,3.53
2023-03-05T03:42:34.708Z,3.54
2023-03-05T03:44:39.422Z,3.53
2023-03-05T03:46:44.481Z,3.53
2023-03-05T03:48:51.737Z,3.56
2023-03-05T03:50:55.082Z,3.59
2023-03-05T03:52:58.402Z,3.59
2023-03-05T03:55:02.507Z,3.61
2023-03-05T03:57:06.074Z,3.60
2023-03-05T03:59:10.095Z,3.61
2023-03-05T04:01:14.913Z,3.60
2023-03-05T04:03:18.175Z,3.59
2023-03-05T04:05:21.496Z,3.59
2023-03-05T04:07:24.865Z,3.60
2023-03-05T04:09:28.180Z,3.61
2023-03-05T04:11:31.574Z,3.60
2023-03-05T04:13:34.913Z,3.60
2023-03-05T04:15:38.264Z,3.60
2023-03-05T04:17:43.043Z,3.59
2023-03-05T04:19:46.831Z,3.59
2023-03-05T04:21:50.082Z,3.61
2023-03-05T04:23:53.408Z,3.62
2023-03-05T04:25:56.844Z,3.61
2023-03-05T04:28:00.116Z,3.60
2023-03-05T04:30:03.559Z,3.60
2023-03-05T04:32:07.314Z,3.60
2023-03-05T04:34:12.151Z,3.60
2023-03-05T04:36:15.430Z,3.57
2023-03-05T04:38:19.221Z,3.56
2023-03-05T04:40:22.813Z,3.55
2023-03-05T04:42:26.298Z,3.59
2023-03-05T04:44:29.857Z,3.60
2023-03-05T04:46:33.391Z,3.60
2023-03-05T04:48:36.856Z,3.62
2023-03-05T04:50:41.777Z,3.64
2023-03-05T04:52:46.504Z,3.65
2023-03-05T04:54:49.846Z,3.63
2023-03-05T04:56:53.885Z,3.60
2023-03-05T04:58:57.303Z,3.58
2023-03-05T05:01:03.642Z,3.56
2023-03-05T05:03:07.068Z,3.55
2023-03-05T05:05:11.974Z,3.55
2023-03-05T05:07:16.784Z,3.55
2023-03-05T05:09:20.073Z,3.56
2023-03-05T05:11:23.281Z,3.57
2023-03-05T05:13:26.838Z,3.56
2023-03-05T05:15:30.136Z,3.55
2023-03-05T05:17:34.259Z,3.54
2023-03-05T05:19:37.870Z,3.54
2023-03-05T05:21:41.338Z,3.54
2023-03-05T05:23:46.239Z,3.54
2023-03-05T05:25:57.907Z,3.54
2023-03-05T05:28:01.155Z,3.52
2023-03-05T05:30:04.930Z,3.51
2023-03-05T05:32:08.904Z,3.53
2023-03-05T05:34:12.257Z,3.53
2023-03-05T05:36:19.344Z,3.52
2023-03-05T05:38:22.624Z,3.51
2023-03-05T05:40:27.292Z,3.51
2023-03-05T05:42:30.752Z,3.51
2023-03-05T05:44:35.029Z,3.51
2023-03-05T05:46:38.491Z,3.51
2023-03-05T05:48:41.932Z,3.50
2023-03-05T05:50:45.198Z,3.50
2023-03-05T05:52:48.611Z,3.50
2023-03-05T05:54:51.984Z,3.51
2023-03-05T05:56:56.691Z,3.51
2023-03-05T05:59:00.031Z,3.51
2023-03-05T06:01:04.227Z,3.52
2023-03-05T06:03:08.008Z,3.53
2023-03-05T06:05:14.894Z,3.54
2023-03-05T06:07:18.247Z,3.53
2023-03-05T06:09:21.754Z,3.53
2023-03-05T06:11:25.243Z,3.51
2023-03-05T06:13:29.865Z,3.51
2023-03-05T06:15:33.425Z,3.53
2023-03-05T06:17:36.962Z,3.53
2023-03-05T06:19:40.202Z,3.55
2023-03-05T06:21:43.642Z,3.55
2023-03-05T06:23:48.341Z,3.56
2023-03-05T06:25:51.924Z,3.56
2023-03-05T06:27:55.173Z,3.55
2023-03-05T06:30:00.373Z,3.55
2023-03-05T06:32:03.640Z,3.54
2023-03-05T06:34:06.888Z,3.52
2023-03-05T06:36:11.986Z,3.53
2023-03-05T06:38:15.274Z,3.51
2023-03-05T06:40:18.651Z,3.52
2023-03-05T06:42:22.671Z,3.52
2023-03-05T06:44:26.094Z,3.50
2023-03-05T06:46:32.332Z,3.50
2023-03-05T06:48:36.316Z,3.47
2023-03-05T06:50:39.782Z,3.45
2023-03-05T06:52:43.557Z,3.45
2023-03-05T06:54:46.751Z,3.45
2023-03-05T06:56:50.109Z,3.45
2023-03-05T06:58:53.788Z,3.43
2023-03-05T07:00:57.347Z,3.43
2023-03-05T07:03:02.125Z,3.45
2023-03-05T07:05:06.179Z,3.46
2023-03-05T07:07:09.560Z,3.47
2023-03-05T07:09:15.888Z,3.47
2023-03-05T07:11:21.420Z,3.50
2023-03-05T07:13:24.721Z,3.49
2023-03-05T07:15:28.093Z,3.51
2023-03-05T07:17:31.333Z,3.50
2023-03-05T07:19:36.034Z,3.51
2023-03-05T07:21:40.047Z,3.50
2023-03-05T07:23:43.536Z,3.51
2023-03-05T07:25:46.846Z,3.51
2023-03-05T07:27:50.221Z,3.53
2023-03-05T07:29:53.438Z,3.53
2023-03-05T07:31:56.958Z,3.53
2023-03-05T07:34:02.755Z,3.54
2023-03-05T07:36:09.255Z,3.53
2023-03-05T07:38:12.509Z,3.54
2023-03-05T07:40:15.849Z,3.56
2023-03-05T07:42:19.107Z,3.59
2023-03-05T07:44:32.960Z,3.62
2023-03-05T07:46:37.343Z,3.63
2023-03-05T07:48:40.694Z,3.64
2023-03-05T07:50:44.088Z,3.65
2023-03-05T07:52:48.853Z,3.67
2023-03-05T07:54:52.159Z,3.65
2023-03-05T07:56:56.429Z,3.66
2023-03-05T07:59:00.050Z,3.69
2023-03-05T08:01:03.612Z,3.71
2023-03-05T08:03:08.012Z,3.73
2023-03-05T08:05:11.540Z,3.78
2023-03-05T08:07:16.061Z,3.81
2023-03-05T08:09:21.135Z,3.84
2023-03-05T08:11:24.679Z,3.84
2023-03-05T08:13:27.976Z,3.84
2023-03-05T08:15:31.979Z,3.84
2023-03-05T08:17:35.986Z,3.86
2023-03-05T08:19:39.994Z,3.85
2023-03-05T08:21:44.192Z,3.88
2023-03-05T08:23:49.075Z,3.88
2023-03-05T08:25:55.170Z,3.92
2023-03-05T08:28:00.523Z,3.95
2023-03-05T08:30:05.092Z,3.98
2023-03-05T08:32:08.968Z,4.04
2023-03-05T08:34:12.880Z,4.10
2023-03-05T08:36:20.022Z,4.17
2023-03-05T08:38:24.469Z,4.25
2023-03-05T08:40:28.428Z,4.30
2023-03-05T08:42:34.294Z,4.35
2023-03-05T08:44:38.637Z,4.43
2023-03-05T08:46:42.946Z,4.50
2023-03-05T08:48:47.166Z,4.53
2023-03-05T08:50:51.296Z,4.59
2023-03-05T08:52:57.065Z,4.64
2023-03-05T08:55:01.098Z,4.65
2023-03-05T08:57:06.258Z,4.68
2023-03-05T08:59:13.593Z,4.72
2023-03-05T09:01:17.635Z,4.68
2023-03-05T09:03:22.544Z,4.67
2023-03-05T09:05:26.900Z,4.65
2023-03-05T09:07:31.115Z,4.65
2023-03-05T09:09:35.427Z,4.62
2023-03-05T09:11:39.689Z,4.60
2023-03-05T09:13:44.151Z,4.60
2023-03-05T09:15:56.124Z,4.67
2023-03-05T09:18:01.709Z,4.75
2023-03-05T09:20:09.453Z,4.83
2023-03-05T09:22:14.903Z,4.89
2023-03-05T09:24:19.963Z,4.91
2023-03-05T09:26:24.646Z,4.90
2023-03-05T09:28:29.699Z,4.94
2023-03-05T09:30:35.833Z,4.98
2023-03-05T09:32:41.776Z,5.06
2023-03-05T09:34:45.944Z,5.14
2023-03-05T09:36:50.895Z,5.23
2023-03-05T09:38:55.325Z,5.28
2023-03-05T09:41:07.642Z,5.40
2023-03-05T09:43:23.955Z,5.51
2023-03-05T09:45:30.590Z,5.61
2023-03-05T09:47:53.304Z,5.73
2023-03-05T09:50:04.204Z,5.79
2023-03-05T09:52:17.808Z,5.79
2023-03-05T09:54:27.449Z,5.81
2023-03-05T09:56:37.601Z,5.76
2023-03-05T09:58:44.697Z,5.68
2023-03-05T10:00:51.558Z,5.68
2023-03-05T10:03:03.024Z,5.71
2023-03-05T10:05:15.236Z,5.69
2023-03-05T10:07:23.252Z,5.65
2023-03-05T10:09:43.230Z,5.62
2023-03-05T10:11:55.249Z,5.65
2023-03-05T10:13:59.834Z,5.72
2023-03-05T10:16:17.574Z,5.77
2023-03-05T10:18:28.811Z,5.80
2023-03-05T10:20:51.825Z,5.84
2023-03-05T10:23:17.647Z,5.88
2023-03-05T10:25:27.383Z,5.90
2023-03-05T10:27:43.502Z,5.92
2023-03-05T10:30:03.905Z,5.95
2023-03-05T10:32:20.867Z,5.98
2023-03-05T10:34:44.838Z,6.08
2023-03-05T10:37:11.935Z,6.27
2023-03-05T10:39:44.424Z,6.36
2023-03-05T10:42:03.049Z,6.35
2023-03-05T10:44:16.883Z,6.41
2023-03-05T10:46:24.302Z,6.50
2023-03-05T10:48:35.997Z,6.58
2023-03-05T10:50:46.221Z,6.66
2023-03-05T10:52:57.535Z,6.72
2023-03-05T10:55:01.748Z,6.72
2023-03-05T10:57:18.702Z,6.68
2023-03-05T10:59:23.464Z,6.64
2023-03-05T11:01:29.485Z,6.53
2023-03-05T11:03:51.067Z,6.42
2023-03-05T11:06:03.391Z,6.37
2023-03-05T11:08:26.106Z,6.34
2023-03-05T11:10:30.353Z,6.34
2023-03-05T11:12:36.002Z,6.32
2023-03-05T11:14:42.138Z,6.33
2023-03-05T11:16:49.493Z,6.35
2023-03-05T11:19:19.508Z,6.42
2023-03-05T11:21:28.163Z,6.51
2023-03-05T11:23:32.058Z,6.59
2023-03-05T11:25:48.255Z,6.65
2023-03-05T11:27:56.376Z,6.72
2023-03-05T11:30:01.114Z,6.70
2023-03-05T11:32:22.494Z,6.70
2023-03-05T11:34:35.779Z,6.68
2023-03-05T11:36:43.112Z,6.62
2023-03-05T11:38:52.280Z,6.61
2023-03-05T11:40:58.913Z,6.65
2023-03-05T11:43:03.530Z,6.69
2023-03-05T11:45:16.435Z,6.72
2023-03-05T11:47:32.086Z,6.68
2023-03-05T11:49:43.409Z,6.66
2023-03-05T11:51:53.526Z,6.65
2023-03-05T11:54:07.520Z,6.67
2023-03-05T11:56:20.464Z,6.67
2023-03-05T11:58:32.850Z,6.70
2023-03-05T12:00:43.484Z,6.75
2023-03-05T12:02:56.476Z,6.84
2023-03-05T12:05:03.938Z,6.91
2023-03-05T12:07:15.199Z,7.03
2023-03-05T12:09:25.486Z,7.09
2023-03-05T12:11:31.767Z,7.13
2023-03-05T12:13:41.689Z,7.10
2023-03-05T12:16:16.803Z,7.07
2023-03-05T12:18:30.905Z,7.11
2023-03-05T12:20:44.385Z,7.22
2023-03-05T12:22:49.977Z,7.36
2023-03-05T12:24:54.347Z,7.44
2023-03-05T12:27:09.931Z,7.45
2023-03-05T12:29:31.112Z,7.41
2023-03-05T12:31:39.804Z,7.31
2023-03-05T12:33:44.464Z,7.28
2023-03-05T12:35:49.535Z,7.27
2023-03-05T12:38:25.633Z,7.22
2023-03-05T12:40:31.077Z,7.16
2023-03-05T12:42:55.483Z,7.06
2023-03-05T12:45:31.007Z,6.95
2023-03-05T12:47:35.430Z,6.93
2023-03-05T12:49:40.985Z,6.86
2023-03-05T12:51:45.106Z,6.81
2023-03-05T12:53:52.597Z,6.74
2023-03-05T12:56:04.190Z,6.67
2023-03-05T12:58:16.052Z,6.67
2023-03-05T13:00:26.828Z,6.66
2023-03-05T13:02:35.873Z,6.62
2023-03-05T13:04:46.936Z,6.55
2023-03-05T13:07:00.207Z,6.58
2023-03-05T13:09:09.434Z,6.67
2023-03-05T13:11:20.137Z,6.76
2023-03-05T13:13:25.799Z,6.86
2023-03-05T13:15:30.457Z,6.93
2023-03-05T13:17:39.407Z,7.06
2023-03-05T13:19:43.557Z,7.21
2023-03-05T13:21:47.298Z,7.32
2023-03-05T13:23:58.106Z,7.41
2023-03-05T13:26:11.113Z,7.47
2023-03-05T13:28:16.580Z,7.52
2023-03-05T13:30:25.915Z,7.50
2023-03-05T13:32:32.565Z,7.51
2023-03-05T13:34:47.100Z,7.54
2023-03-05T13:36:57.788Z,7.54
2023-03-05T13:39:04.215Z,7.52
2023-03-05T13:41:21.583Z,7.45
2023-03-05T13:43:25.253Z,7.40
2023-03-05T13:45:31.378Z,7.36
2023-03-05T13:47:37.167Z,7.30
2023-03-05T13:49:40.691Z,7.22
2023-03-05T13:51:45.048Z,7.15
2023-03-05T13:53:49.208Z,7.10
2023-03-05T13:55:54.750Z,7.06
2023-03-05T13:57:59.800Z,7.05
2023-03-05T14:00:03.869Z,7.01
2023-03-05T14:02:17.417Z,7.02
2023-03-05T14:04:23.544Z,7.08
2023-03-05T14:06:31.149Z,7.13
2023-03-05T14:08:35.118Z,7.19
2023-03-05T14:10:40.616Z,7.23
2023-03-05T14:12:45.531Z,7.25
2023-03-05T14:14:51.338Z,7.26
2023-03-05T14:16:55.034Z,7.25
2023-03-05T14:19:01.324Z,7.26
2023-03-05T14:21:07.772Z,7.28
2023-03-05T14:23:34.665Z,7.27
2023-03-05T14:25:40.432Z,7.26
2023-03-05T14:27:44.242Z,7.27
2023-03-05T14:29:48.783Z,7.26
2023-03-05T14:31:56.228Z,7.28
2023-03-05T14:34:04.684Z,7.32
2023-03-05T14:36:10.887Z,7.36
2023-03-05T14:38:23.796Z,7.40
2023-03-05T14:40:31.745Z,7.52
2023-03-05T14:42:39.222Z,7.67
2023-03-05T14:44:43.970Z,7.82
2023-03-05T14:46:51.546Z,7.90
2023-03-05T14:48:56.712Z,7.97
2023-03-05T14:51:01.529Z,8.02
2023-03-05T14:53:09.196Z,8.04
2023-03-05T14:55:17.209Z,8.06
2023-03-05T14:57:24.568Z,8.09
2023-03-05T14:59:28.276Z,8.13
2023-03-05T15:01:32.109Z,8.17
2023-03-05T15:03:36.016Z,8.18
2023-03-05T15:05:41.010Z,8.20
2023-03-05T15:07:46.489Z,8.21
2023-03-05T15:09:50.248Z,8.18
2023-03-05T15:11:53.869Z,8.16
2023-03-05T15:13:57.575Z,8.18
2023-03-05T15:16:01.455Z,8.18
2023-03-05T15:18:05.149Z,8.17
2023-03-05T15:20:13.365Z,8.16
2023-03-05T15:22:19.102Z,8.16
2023-03-05T15:24:22.709Z,8.21
2023-03-05T15:26:26.379Z,8.25
2023-03-05T15:28:30.265Z,8.24
2023-03-05T15:30:35.081Z,8.19
2023-03-05T15:32:38.988Z,8.19
2023-03-05T15:34:42.552Z,8.18
2023-03-05T15:36:46.413Z,8.24
2023-03-05T15:38:51.949Z,8.29
2023-03-05T15:40:55.936Z,8.34
2023-03-05T15:43:01.103Z,8.34
2023-03-05T15:45:05.228Z,8.28
2023-03-05T15:47:09.155Z,8.30
2023-03-05T15:49:12.909Z,8.28
2023-03-05T15:51:16.559Z,8.25
2023-03-05T15:53:21.803Z,8.21
2023-03-05T15:55:27.652Z,8.13
2023-03-05T15:57:31.703Z,8.10
2023-03-05T15:59:35.159Z,8.04
2023-03-05T16:01:39.386Z,7.99
2023-03-05T16:03:43.504Z,7.95
2023-03-05T16:05:48.352Z,7.91
2023-03-05T16:07:54.233Z,7.88
2023-03-05T16:09:59.252Z,7.87
2023-03-05T16:12:05.733Z,7.83
2023-03-05T16:14:13.622Z,7.82
2023-03-05T16:16:18.354Z,7.82
2023-03-05T16:18:23.504Z,7.81
2023-03-05T16:20:27.612Z,7.80
2023-03-05T16:22:31.184Z,7.83
2023-03-05T16:24:35.441Z,7.86
2023-03-05T16:26:41.319Z,7.88
2023-03-05T16:28:46.920Z,7.90
2023-03-05T16:30:55.156Z,7.91
2023-03-05T16:33:00.134Z,7.92
2023-03-05T16:35:03.645Z,7.92
2023-03-05T16:37:07.695Z,7.89
2023-03-05T16:39:11.456Z,7.85
2023-03-05T16:41:16.522Z,7.84
2023-03-05T16:43:19.753Z,7.84
2023-03-05T16:45:24.786Z,7.84
2023-03-05T16:47:28.981Z,7.85
2023-03-05T16:49:33.352Z,7.85
2023-03-05T16:51:37.693Z,7.84
2023-03-05T16:53:42.869Z,7.84
2023-03-05T16:55:48.411Z,7.83
2023-03-05T16:57:52.229Z,7.82
2023-03-05T16:59:56.542Z,7.81
2023-03-05T17:02:02.108Z,7.78
2023-03-05T17:04:06.021Z,7.75
2023-03-05T17:06:11.984Z,7.75
2023-03-05T17:08:15.703Z,7.76
2023-03-05T17:10:19.875Z,7.76
2023-03-05T17:12:24.422Z,7.78
2023-03-05T17:14:28.597Z,7.78
2023-03-05T17:16:32.565Z,7.77
2023-03-05T17:18:38.225Z,7.78
2023-03-05T17:20:42.404Z,7.76
2023-03-05T17:22:46.327Z,7.72
2023-03-05T17:24:50.148Z,7.69
2023-03-05T17:26:54.178Z,7.65
2023-03-05T17:28:58.139Z,7.59
2023-03-05T17:31:05.062Z,7.55
2023-03-05T17:33:08.920Z,7.50
2023-03-05T17:35:19.387Z,7.44
2023-03-05T17:37:23.850Z,7.39
2023-03-05T17:39:27.490Z,7.33
2023-03-05T17:41:31.340Z,7.29
2023-03-05T17:43:35.262Z,7.26
2023-03-05T17:45:40.050Z,7.23
2023-03-05T17:47:44.504Z,7.20
2023-03-05T17:49:49.643Z,7.16
2023-03-05T17:51:54.845Z,7.13
2023-03-05T17:53:59.323Z,7.09
2023-03-05T17:56:03.694Z,7.04
2023-03-05T17:58:08.146Z,7.03
2023-03-05T18:00:18.074Z,6.99
2023-03-05T18:02:22.629Z,6.96
2023-03-05T18:04:26.616Z,6.94
2023-03-05T18:06:31.067Z,6.92
2023-03-05T18:08:36.315Z,6.89
2023-03-05T18:10:40.103Z,6.86
2023-03-05T18:12:44.364Z,6.84
2023-03-05T18:14:48.398Z,6.80
2023-03-05T18:16:52.237Z,6.75
2023-03-05T18:18:56.936Z,6.72
2023-03-05T18:21:00.686Z,6.67
2023-03-05T18:23:05.818Z,6.63
2023-03-05T18:25:13.403Z,6.58
2023-03-05T18:27:18.343Z,6.55
2023-03-05T18:29:22.629Z,6.51
2023-03-05T18:31:26.637Z,6.48
2023-03-05T18:33:30.503Z,6.46
2023-03-05T18:35:34.031Z,6.42
2023-03-05T18:37:40.063Z,6.42
2023-03-05T18:39:44.369Z,6.42
2023-03-05T18:41:49.730Z,6.42
2023-03-05T18:43:54.709Z,6.43
2023-03-05T18:45:58.670Z,6.42
2023-03-05T18:48:02.573Z,6.43
2023-03-05T18:50:07.193Z,6.42
2023-03-05T18:52:13.932Z,6.42
2023-03-05T18:54:18.901Z,6.41
2023-03-05T18:56:23.457Z,6.41
2023-03-05T18:58:28.759Z,6.40
2023-03-05T19:00:33.921Z,6.41
2023-03-05T19:02:37.287Z,6.41
2023-03-05T19:04:41.531Z,6.42
2023-03-05T19:06:45.303Z,6.46
2023-03-05T19:08:56.736Z,6.46
2023-03-05T19:11:00.779Z,6.49
2023-03-05T19:13:18.800Z,6.50
2023-03-05T19:15:24.892Z,6.54
2023-03-05T19:17:29.011Z,6.56
2023-03-05T19:19:32.525Z,6.59
2023-03-05T19:21:36.149Z,6.61
2023-03-05T19:23:40.313Z,6.64
2023-03-05T19:25:43.995Z,6.64
2023-03-05T19:27:47.421Z,6.66
2023-03-05T19:29:53.622Z,6.70
2023-03-05T19:31:58.915Z,6.69
2023-03-05T19:34:03.602Z,6.70
2023-03-05T19:36:10.306Z,6.69
2023-03-05T19:38:14.295Z,6.69
2023-03-05T19:40:18.353Z,6.69
2023-03-05T19:42:22.148Z,6.66
2023-03-05T19:44:28.059Z,6.64
2023-03-05T19:46:32.045Z,6.63
2023-03-05T19:48:38.307Z,6.59
2023-03-05T19:50:42.288Z,6.55
2023-03-05T19:52:46.469Z,6.53
2023-03-05T19:54:51.181Z,6.50
2023-03-05T19:56:56.251Z,6.47
2023-03-05T19:58:59.552Z,6.42
2023-03-05T20:01:11.810Z,6.39
2023-03-05T20:03:15.667Z,6.37
2023-03-05T20:05:25.690Z,6.34
2023-03-05T20:07:29.594Z,6.33
2023-03-05T20:09:36.068Z,6.33
2023-03-05T20:11:40.916Z,6.31
2023-03-05T20:13:44.937Z,6.29
2023-03-05T20:15:48.447Z,6.28
2023-03-05T20:17:54.351Z,6.29
2023-03-05T20:19:59.239Z,6.29
2023-03-05T20:22:05.305Z,6.28
2023-03-05T20:24:11.932Z,6.27
2023-03-05T20:26:15.700Z,6.26
2023-03-05T20:28:26.160Z,6.25
2023-03-05T20:30:30.898Z,6.25
2023-03-05T20:32:34.936Z,6.24
2023-03-05T20:34:39.031Z,6.24
2023-03-05T20:36:44.167Z,6.24
2023-03-05T20:38:49.341Z,6.23
2023-03-05T20:40:55.142Z,6.22
2023-03-05T20:42:59.472Z,6.22
2023-03-05T20:45:04.191Z,6.21
2023-03-05T20:47:23.874Z,6.21
2023-03-05T20:49:27.570Z,6.19
2023-03-05T20:51:34.305Z,6.20
2023-03-05T20:53:38.206Z,6.16
2023-03-05T20:55:44.649Z,6.16
2023-03-05T20:57:48.260Z,6.15
2023-03-05T20:59:51.913Z,6.15
2023-03-05T21:01:55.619Z,6.15
2023-03-05T21:03:59.220Z,6.16
2023-03-05T21:06:03.832Z,6.16
2023-03-05T21:08:07.737Z,6.15
2023-03-05T21:10:12.864Z,6.15
2023-03-05T21:12:18.681Z,6.14
2023-03-05T21:14:22.998Z,6.13
2023-03-05T21:16:29.180Z,6.13
2023-03-05T21:18:33.081Z,6.12
2023-03-05T21:20:36.956Z,6.14
2023-03-05T21:22:41.161Z,6.13
2023-03-05T21:24:55.921Z,6.12
2023-03-05T21:26:59.635Z,6.10
2023-03-05T21:29:05.141Z,6.10
2023-03-05T21:31:11.420Z,6.10
2023-03-05T21:33:18.233Z,6.08
2023-03-05T21:35:24.569Z,6.09
2023-03-05T21:37:29.337Z,6.07
2023-03-05T21:39:33.103Z,6.06
2023-03-05T21:41:36.927Z,6.06
2023-03-05T21:43:40.976Z,6.05
2023-03-05T21:45:47.854Z,6.05
2023-03-05T21:47:53.615Z,6.05
2023-03-05T21:49:58.051Z,6.04
2023-03-05T21:52:09.322Z,6.02
2023-03-05T21:54:13.100Z,6.03
2023-03-05T21:56:24.667Z,6.01
2023-03-05T21:58:28.352Z,5.99
2023-03-05T22:00:31.873Z,6.01
2023-03-05T22:02:37.543Z,6.01
2023-03-05T22:04:41.312Z,6.01
2023-03-05T22:06:45.411Z,6.01
2023-03-05T22:08:49.996Z,6.01
2023-03-05T22:10:54.600Z,6.02
2023-03-05T22:13:07.158Z,6.02
2023-03-05T22:15:12.357Z,6.00
2023-03-05T22:17:15.955Z,5.99
2023-03-05T22:19:21.142Z,5.98
2023-03-05T22:21:27.644Z,5.97
2023-03-05T22:23:34.451Z,5.96
2023-03-05T22:25:38.258Z,5.93
2023-03-05T22:27:42.378Z,5.93
2023-03-05T22:29:45.977Z,5.92
2023-03-05T22:31:49.888Z,5.92
2023-03-05T22:33:54.334Z,5.91
2023-03-05T22:36:00.218Z,5.91
2023-03-05T22:38:03.909Z,5.92
2023-03-05T22:40:08.865Z,5.91
2023-03-05T22:42:12.427Z,5.90
2023-03-05T22:44:16.068Z,5.89
2023-03-05T22:46:21.853Z,5.89
2023-03-05T22:48:25.568Z,5.88
2023-03-05T22:50:29.108Z,5.88
2023-03-05T22:52:34.162Z,5.89
2023-03-05T22:54:37.699Z,5.88
2023-03-05T22:56:41.396Z,5.88
2023-03-05T22:58:45.041Z,5.87
2023-03-05T23:00:49.015Z,5.87
2023-03-05T23:02:53.136Z,5.84
2023-03-05T23:04:57.925Z,5.84
2023-03-05T23:07:01.743Z,5.84
2023-03-05T23:09:06.946Z,5.83
2023-03-05T23:11:12.616Z,5.83
2023-03-05T23:13:16.379Z,5.83
2023-03-05T23:15:25.108Z,5.82
2023-03-05T23:17:28.832Z,5.83
2023-03-05T23:19:39.515Z,5.83
2023-03-05T23:21:43.266Z,5.84
2023-03-05T23:23:46.887Z,5.83
2023-03-05T23:25:53.405Z,5.85
2023-03-05T23:27:58.190Z,5.84
2023-03-05T23:30:12.828Z,5.84
2023-03-05T23:32:16.524Z,5.83
2023-03-05T23:34:20.145Z,5.83
2023-03-05T23:36:25.615Z,5.81
2023-03-05T23:38:30.865Z,5.80
2023-03-05T23:40:36.906Z,5.78
2023-03-05T23:42:43.386Z,5.76
2023-03-05T23:44:46.913Z,5.75
2023-03-05T23:46:50.529Z,5.74
2023-03-05T23:48:54.045Z,5.73
2023-03-05T23:50:57.666Z,5.73
2023-03-05T23:53:02.457Z,5.73
2023-03-05T23:55:07.021Z,5.73
2023-03-05T23:57:10.682Z,5.71
2023-03-05T23:59:15.672Z,5.70
